sensor_id;sensor_type;location;lat;lon;timestamp;temperature;humidity
3626;DHT22;1827;50.534;8.316;2023-07-08T00:01:20;14.70;99.90
3626;DHT22;1827;50.534;8.316;2023-07-08T00:03:46;14.70;99.90
3626;DHT22;1827;50.534;8.316;2023-07-08T00:06:26;14.60;99.90
3626;DHT22;1827;50.534;8.316;2023-07-08T00:08:55;14.60;99.90
3626;DHT22;1827;50.534;8.316;2023-07-08T00:11:23;14.50;99.90
3626;DHT22;1827;50.534;8.316;2023-07-08T00:13:48;14.50;99.90
3626;DHT22;1827;50.534;8.316;2023-07-08T00:16:17;14.40;99.90
3626;DHT22;1827;50.534;8.316;2023-07-08T00:18:46;14.40;99.90
3626;DHT22;1827;50.534;8.316;2023-07-08T00:21:15;14.30;99.90
3626;DHT22;1827;50.534;8.316;2023-07-08T00:23:49;14.30;99.90
3626;DHT22;1827;50.534;8.316;2023-07-08T00:26:31;14.30;99.90
3626;DHT22;1827;50.534;8.316;2023-07-08T00:28:59;14.20;99.90
3626;DHT22;1827;50.534;8.316;2023-07-08T00:31:28;14.20;99.90
3626;DHT22;1827;50.534;8.316;2023-07-08T00:34:09;14.10;99.90
3626;DHT22;1827;50.534;8.316;2023-07-08T00:36:35;14.00;99.90
3626;DHT22;1827;50.534;8.316;2023-07-08T00:39:12;14.00;99.90
3626;DHT22;1827;50.534;8.316;2023-07-08T00:41:47;14.00;99.90
3626;DHT22;1827;50.534;8.316;2023-07-08T00:44:16;13.90;99.90
3626;DHT22;1827;50.534;8.316;2023-07-08T00:46:51;13.90;99.90
3626;DHT22;1827;50.534;8.316;2023-07-08T00:49:51;13.80;99.90
3626;DHT22;1827;50.534;8.316;2023-07-08T00:52:21;13.80;99.90
3626;DHT22;1827;50.534;8.316;2023-07-08T00:54:53;13.70;99.90
3626;DHT22;1827;50.534;8.316;2023-07-08T00:57:20;13.70;99.90
3626;DHT22;1827;50.534;8.316;2023-07-08T00:59:54;13.70;99.90
3626;DHT22;1827;50.534;8.316;2023-07-08T01:02:24;13.60;99.90
3626;DHT22;1827;50.534;8.316;2023-07-08T01:05:26;13.70;99.90
3626;DHT22;1827;50.534;8.316;2023-07-08T01:07:58;13.60;99.90
3626;DHT22;1827;50.534;8.316;2023-07-08T01:10:43;13.60;99.90
3626;DHT22;1827;50.534;8.316;2023-07-08T01:13:15;13.50;99.90
3626;DHT22;1827;50.534;8.316;2023-07-08T01:15:51;13.40;99.90
3626;DHT22;1827;50.534;8.316;2023-07-08T01:18:21;13.40;99.90
3626;DHT22;1827;50.534;8.316;2023-07-08T01:20:50;13.40;99.90
3626;DHT22;1827;50.534;8.316;2023-07-08T01:23:17;13.50;99.90
3626;DHT22;1827;50.534;8.316;2023-07-08T01:25:44;13.50;99.90
3626;DHT22;1827;50.534;8.316;2023-07-08T01:28:11;13.40;1.00
3626;DHT22;1827;50.534;8.316;2023-07-08T01:30:37;13.40;1.00
3626;DHT22;1827;50.534;8.316;2023-07-08T01:33:14;13.40;1.00
3626;DHT22;1827;50.534;8.316;2023-07-08T01:35:41;13.40;1.00
3626;DHT22;1827;50.534;8.316;2023-07-08T01:38:10;13.40;1.00
3626;DHT22;1827;50.534;8.316;2023-07-08T01:40:48;13.40;1.00
3626;DHT22;1827;50.534;8.316;2023-07-08T01:43:17;13.40;1.00
3626;DHT22;1827;50.534;8.316;2023-07-08T01:45:43;13.30;1.00
3626;DHT22;1827;50.534;8.316;2023-07-08T01:48:41;13.30;1.00
3626;DHT22;1827;50.534;8.316;2023-07-08T01:51:10;13.30;1.00
3626;DHT22;1827;50.534;8.316;2023-07-08T01:53:45;13.20;1.00
3626;DHT22;1827;50.534;8.316;2023-07-08T01:56:19;13.20;1.00
3626;DHT22;1827;50.534;8.316;2023-07-08T01:58:50;13.00;1.00
3626;DHT22;1827;50.534;8.316;2023-07-08T02:01:19;13.00;1.00
3626;DHT22;1827;50.534;8.316;2023-07-08T02:03:50;13.00;1.00
3626;DHT22;1827;50.534;8.316;2023-07-08T02:06:19;13.10;1.00
3626;DHT22;1827;50.534;8.316;2023-07-08T02:08:45;13.10;1.00
3626;DHT22;1827;50.534;8.316;2023-07-08T02:11:16;13.10;1.00
3626;DHT22;1827;50.534;8.316;2023-07-08T02:13:45;13.20;1.00
3626;DHT22;1827;50.534;8.316;2023-07-08T02:16:20;13.00;1.00
3626;DHT22;1827;50.534;8.316;2023-07-08T02:18:45;12.90;1.00
3626;DHT22;1827;50.534;8.316;2023-07-08T02:21:11;12.90;1.00
3626;DHT22;1827;50.534;8.316;2023-07-08T02:23:39;13.00;1.00
3626;DHT22;1827;50.534;8.316;2023-07-08T02:26:05;13.00;1.00
3626;DHT22;1827;50.534;8.316;2023-07-08T02:28:31;13.00;1.00
3626;DHT22;1827;50.534;8.316;2023-07-08T02:31:03;13.00;1.00
3626;DHT22;1827;50.534;8.316;2023-07-08T02:33:32;12.90;1.00
3626;DHT22;1827;50.534;8.316;2023-07-08T02:35:59;12.80;1.00
3626;DHT22;1827;50.534;8.316;2023-07-08T02:38:26;12.90;1.00
3626;DHT22;1827;50.534;8.316;2023-07-08T02:40:54;12.90;1.00
3626;DHT22;1827;50.534;8.316;2023-07-08T02:43:19;12.90;1.00
3626;DHT22;1827;50.534;8.316;2023-07-08T02:45:49;13.00;1.00
3626;DHT22;1827;50.534;8.316;2023-07-08T02:48:15;12.90;1.00
3626;DHT22;1827;50.534;8.316;2023-07-08T02:50:41;13.00;1.00
3626;DHT22;1827;50.534;8.316;2023-07-08T02:53:06;13.10;1.00
3626;DHT22;1827;50.534;8.316;2023-07-08T02:55:32;13.20;1.00
3626;DHT22;1827;50.534;8.316;2023-07-08T02:58:01;13.20;1.00
3626;DHT22;1827;50.534;8.316;2023-07-08T03:00:27;13.20;1.00
3626;DHT22;1827;50.534;8.316;2023-07-08T03:02:54;13.00;1.00
3626;DHT22;1827;50.534;8.316;2023-07-08T03:05:20;13.00;1.00
3626;DHT22;1827;50.534;8.316;2023-07-08T03:07:46;13.00;1.00
3626;DHT22;1827;50.534;8.316;2023-07-08T03:10:11;13.10;1.00
3626;DHT22;1827;50.534;8.316;2023-07-08T03:12:37;13.20;1.00
3626;DHT22;1827;50.534;8.316;2023-07-08T03:15:04;13.20;1.00
3626;DHT22;1827;50.534;8.316;2023-07-08T03:17:30;13.30;1.00
3626;DHT22;1827;50.534;8.316;2023-07-08T03:19:56;13.40;1.00
3626;DHT22;1827;50.534;8.316;2023-07-08T03:22:22;13.40;1.00
3626;DHT22;1827;50.534;8.316;2023-07-08T03:24:48;13.50;1.00
3626;DHT22;1827;50.534;8.316;2023-07-08T03:27:23;13.60;1.00
3626;DHT22;1827;50.534;8.316;2023-07-08T03:29:52;13.50;1.00
3626;DHT22;1827;50.534;8.316;2023-07-08T03:32:18;13.40;1.00
3626;DHT22;1827;50.534;8.316;2023-07-08T03:34:44;13.30;1.00
3626;DHT22;1827;50.534;8.316;2023-07-08T03:37:10;13.30;1.00
3626;DHT22;1827;50.534;8.316;2023-07-08T03:39:36;13.30;1.00
3626;DHT22;1827;50.534;8.316;2023-07-08T03:42:05;13.40;1.00
3626;DHT22;1827;50.534;8.316;2023-07-08T03:44:39;13.40;1.00
3626;DHT22;1827;50.534;8.316;2023-07-08T03:47:05;13.50;1.00
3626;DHT22;1827;50.534;8.316;2023-07-08T03:49:33;13.60;1.00
3626;DHT22;1827;50.534;8.316;2023-07-08T03:52:09;13.60;1.00
3626;DHT22;1827;50.534;8.316;2023-07-08T03:54:56;13.60;1.00
3626;DHT22;1827;50.534;8.316;2023-07-08T03:57:26;13.50;1.00
3626;DHT22;1827;50.534;8.316;2023-07-08T03:59:52;13.60;1.00
3626;DHT22;1827;50.534;8.316;2023-07-08T04:02:26;13.50;1.00
3626;DHT22;1827;50.534;8.316;2023-07-08T04:04:52;13.40;1.00
3626;DHT22;1827;50.534;8.316;2023-07-08T04:07:20;13.30;1.00
3626;DHT22;1827;50.534;8.316;2023-07-08T04:09:50;13.30;1.00
3626;DHT22;1827;50.534;8.316;2023-07-08T04:12:17;13.40;1.00
3626;DHT22;1827;50.534;8.316;2023-07-08T04:14:48;13.40;1.00
3626;DHT22;1827;50.534;8.316;2023-07-08T04:17:14;13.40;1.00
3626;DHT22;1827;50.534;8.316;2023-07-08T04:19:43;13.40;1.00
3626;DHT22;1827;50.534;8.316;2023-07-08T04:22:10;13.40;1.00
3626;DHT22;1827;50.534;8.316;2023-07-08T04:24:38;13.30;1.00
3626;DHT22;1827;50.534;8.316;2023-07-08T04:27:04;13.20;1.00
3626;DHT22;1827;50.534;8.316;2023-07-08T04:29:33;13.30;1.00
3626;DHT22;1827;50.534;8.316;2023-07-08T04:32:02;13.30;1.00
3626;DHT22;1827;50.534;8.316;2023-07-08T04:34:29;13.40;1.00
3626;DHT22;1827;50.534;8.316;2023-07-08T04:36:57;13.60;1.00
3626;DHT22;1827;50.534;8.316;2023-07-08T04:39:24;13.80;1.00
3626;DHT22;1827;50.534;8.316;2023-07-08T04:41:53;14.10;1.00
3626;DHT22;1827;50.534;8.316;2023-07-08T04:44:19;14.20;1.00
3626;DHT22;1827;50.534;8.316;2023-07-08T04:46:49;14.40;1.00
3626;DHT22;1827;50.534;8.316;2023-07-08T04:49:17;14.60;1.00
3626;DHT22;1827;50.534;8.316;2023-07-08T04:51:43;14.70;99.90
3626;DHT22;1827;50.534;8.316;2023-07-08T04:54:10;14.90;99.90
3626;DHT22;1827;50.534;8.316;2023-07-08T04:56:40;15.00;99.90
3626;DHT22;1827;50.534;8.316;2023-07-08T04:59:11;15.30;99.90
3626;DHT22;1827;50.534;8.316;2023-07-08T05:01:39;15.60;99.90
3626;DHT22;1827;50.534;8.316;2023-07-08T05:04:05;16.00;99.90
3626;DHT22;1827;50.534;8.316;2023-07-08T05:06:34;16.00;99.90
3626;DHT22;1827;50.534;8.316;2023-07-08T05:09:06;16.10;99.90
3626;DHT22;1827;50.534;8.316;2023-07-08T05:11:33;16.10;99.90
3626;DHT22;1827;50.534;8.316;2023-07-08T05:14:08;16.20;99.90
3626;DHT22;1827;50.534;8.316;2023-07-08T05:16:36;16.00;99.90
3626;DHT22;1827;50.534;8.316;2023-07-08T05:19:07;15.90;99.90
3626;DHT22;1827;50.534;8.316;2023-07-08T05:21:54;15.80;99.90
3626;DHT22;1827;50.534;8.316;2023-07-08T05:24:26;15.90;99.90
3626;DHT22;1827;50.534;8.316;2023-07-08T05:26:54;16.00;99.90
3626;DHT22;1827;50.534;8.316;2023-07-08T05:29:20;16.30;99.90
3626;DHT22;1827;50.534;8.316;2023-07-08T05:31:46;16.60;99.90
3626;DHT22;1827;50.534;8.316;2023-07-08T05:34:12;16.70;99.90
3626;DHT22;1827;50.534;8.316;2023-07-08T05:36:38;16.80;99.90
3626;DHT22;1827;50.534;8.316;2023-07-08T05:39:04;17.00;99.90
3626;DHT22;1827;50.534;8.316;2023-07-08T05:41:33;17.20;99.90
3626;DHT22;1827;50.534;8.316;2023-07-08T05:43:59;17.70;99.90
3626;DHT22;1827;50.534;8.316;2023-07-08T05:46:25;18.30;99.90
3626;DHT22;1827;50.534;8.316;2023-07-08T05:48:51;18.10;99.90
3626;DHT22;1827;50.534;8.316;2023-07-08T05:51:34;18.20;99.90
3626;DHT22;1827;50.534;8.316;2023-07-08T05:54:03;18.10;99.90
3626;DHT22;1827;50.534;8.316;2023-07-08T05:56:39;17.90;99.90
3626;DHT22;1827;50.534;8.316;2023-07-08T05:59:08;18.40;99.90
3626;DHT22;1827;50.534;8.316;2023-07-08T06:01:51;18.90;99.90
3626;DHT22;1827;50.534;8.316;2023-07-08T06:04:20;19.80;99.90
3626;DHT22;1827;50.534;8.316;2023-07-08T06:07:01;20.80;99.90
3626;DHT22;1827;50.534;8.316;2023-07-08T06:09:34;21.40;99.90
3626;DHT22;1827;50.534;8.316;2023-07-08T06:12:11;21.60;99.90
3626;DHT22;1827;50.534;8.316;2023-07-08T06:14:37;22.60;99.90
3626;DHT22;1827;50.534;8.316;2023-07-08T06:17:09;22.00;99.90
3626;DHT22;1827;50.534;8.316;2023-07-08T06:19:40;22.40;99.90
3626;DHT22;1827;50.534;8.316;2023-07-08T06:22:18;21.80;99.90
3626;DHT22;1827;50.534;8.316;2023-07-08T06:24:47;22.20;99.90
3626;DHT22;1827;50.534;8.316;2023-07-08T06:27:13;22.60;99.90
3626;DHT22;1827;50.534;8.316;2023-07-08T06:29:39;22.10;99.90
3626;DHT22;1827;50.534;8.316;2023-07-08T06:32:06;21.60;99.90
3626;DHT22;1827;50.534;8.316;2023-07-08T06:34:35;21.40;99.90
3626;DHT22;1827;50.534;8.316;2023-07-08T06:37:01;21.30;99.90
3626;DHT22;1827;50.534;8.316;2023-07-08T06:39:29;21.40;99.90
3626;DHT22;1827;50.534;8.316;2023-07-08T06:41:55;21.50;99.90
3626;DHT22;1827;50.534;8.316;2023-07-08T06:44:26;20.70;99.90
3626;DHT22;1827;50.534;8.316;2023-07-08T06:46:52;20.50;99.90
3626;DHT22;1827;50.534;8.316;2023-07-08T06:49:18;20.70;99.90
3626;DHT22;1827;50.534;8.316;2023-07-08T06:51:49;20.80;99.90
3626;DHT22;1827;50.534;8.316;2023-07-08T06:54:21;21.00;99.90
3626;DHT22;1827;50.534;8.316;2023-07-08T06:57:00;21.60;99.90
3626;DHT22;1827;50.534;8.316;2023-07-08T06:59:40;21.60;99.90
3626;DHT22;1827;50.534;8.316;2023-07-08T07:02:09;21.90;99.90
3626;DHT22;1827;50.534;8.316;2023-07-08T07:04:41;21.50;99.90
3626;DHT22;1827;50.534;8.316;2023-07-08T07:07:17;21.60;99.90
3626;DHT22;1827;50.534;8.316;2023-07-08T07:09:53;21.30;99.90
3626;DHT22;1827;50.534;8.316;2023-07-08T07:12:28;20.80;99.90
3626;DHT22;1827;50.534;8.316;2023-07-08T07:14:59;20.80;99.90
3626;DHT22;1827;50.534;8.316;2023-07-08T07:17:32;20.70;99.90
3626;DHT22;1827;50.534;8.316;2023-07-08T07:20:02;20.60;99.90
3626;DHT22;1827;50.534;8.316;2023-07-08T07:22:44;21.00;99.90
3626;DHT22;1827;50.534;8.316;2023-07-08T07:25:17;21.10;99.90
3626;DHT22;1827;50.534;8.316;2023-07-08T07:27:55;21.20;99.90
3626;DHT22;1827;50.534;8.316;2023-07-08T07:30:26;21.30;99.90
3626;DHT22;1827;50.534;8.316;2023-07-08T07:32:52;21.50;99.90
3626;DHT22;1827;50.534;8.316;2023-07-08T07:35:21;21.60;99.90
3626;DHT22;1827;50.534;8.316;2023-07-08T07:37:48;20.80;99.90
3626;DHT22;1827;50.534;8.316;2023-07-08T07:40:14;20.60;99.90
3626;DHT22;1827;50.534;8.316;2023-07-08T07:42:52;20.60;99.90
3626;DHT22;1827;50.534;8.316;2023-07-08T07:45:18;20.70;99.90
3626;DHT22;1827;50.534;8.316;2023-07-08T07:47:50;21.30;99.90
3626;DHT22;1827;50.534;8.316;2023-07-08T07:50:18;21.70;99.90
3626;DHT22;1827;50.534;8.316;2023-07-08T07:52:55;22.20;99.90
3626;DHT22;1827;50.534;8.316;2023-07-08T07:55:24;22.90;99.90
3626;DHT22;1827;50.534;8.316;2023-07-08T07:57:50;23.20;99.90
3626;DHT22;1827;50.534;8.316;2023-07-08T08:00:17;24.30;99.90
3626;DHT22;1827;50.534;8.316;2023-07-08T08:02:51;24.10;99.90
3626;DHT22;1827;50.534;8.316;2023-07-08T08:05:17;24.90;99.90
3626;DHT22;1827;50.534;8.316;2023-07-08T08:07:44;24.70;99.90
3626;DHT22;1827;50.534;8.316;2023-07-08T08:10:18;24.90;99.90
3626;DHT22;1827;50.534;8.316;2023-07-08T08:12:44;24.60;99.90
3626;DHT22;1827;50.534;8.316;2023-07-08T08:15:19;25.00;99.90
3626;DHT22;1827;50.534;8.316;2023-07-08T08:17:45;24.60;99.90
3626;DHT22;1827;50.534;8.316;2023-07-08T08:20:14;24.90;99.90
3626;DHT22;1827;50.534;8.316;2023-07-08T08:22:40;25.30;99.90
3626;DHT22;1827;50.534;8.316;2023-07-08T08:25:09;25.00;99.90
3626;DHT22;1827;50.534;8.316;2023-07-08T08:27:37;24.60;99.90
3626;DHT22;1827;50.534;8.316;2023-07-08T08:30:05;25.30;99.90
3626;DHT22;1827;50.534;8.316;2023-07-08T08:32:31;25.30;99.90
3626;DHT22;1827;50.534;8.316;2023-07-08T08:34:56;26.10;99.90
3626;DHT22;1827;50.534;8.316;2023-07-08T08:37:22;26.00;99.90
3626;DHT22;1827;50.534;8.316;2023-07-08T08:39:48;26.20;99.90
3626;DHT22;1827;50.534;8.316;2023-07-08T08:44:59;26.00;99.90
3626;DHT22;1827;50.534;8.316;2023-07-08T08:47:35;26.70;99.90
3626;DHT22;1827;50.534;8.316;2023-07-08T08:52:55;26.80;99.90
3626;DHT22;1827;50.534;8.316;2023-07-08T08:55:25;27.60;99.90
3626;DHT22;1827;50.534;8.316;2023-07-08T09:03:16;27.90;99.90
3626;DHT22;1827;50.534;8.316;2023-07-08T09:05:45;27.80;99.90
3626;DHT22;1827;50.534;8.316;2023-07-08T09:08:31;28.10;99.90
3626;DHT22;1827;50.534;8.316;2023-07-08T09:11:03;28.70;99.90
3626;DHT22;1827;50.534;8.316;2023-07-08T09:13:36;28.40;99.90
3626;DHT22;1827;50.534;8.316;2023-07-08T09:19:09;29.30;99.90
3626;DHT22;1827;50.534;8.316;2023-07-08T09:21:40;29.90;99.90
3626;DHT22;1827;50.534;8.316;2023-07-08T09:24:18;29.70;99.90
3626;DHT22;1827;50.534;8.316;2023-07-08T09:26:52;30.90;99.90
3626;DHT22;1827;50.534;8.316;2023-07-08T09:29:25;31.80;99.90
3626;DHT22;1827;50.534;8.316;2023-07-08T09:31:57;31.60;99.90
3626;DHT22;1827;50.534;8.316;2023-07-08T09:34:37;30.00;99.90
3626;DHT22;1827;50.534;8.316;2023-07-08T09:37:20;29.40;99.90
3626;DHT22;1827;50.534;8.316;2023-07-08T09:39:47;28.60;99.90
3626;DHT22;1827;50.534;8.316;2023-07-08T09:42:14;28.30;99.90
3626;DHT22;1827;50.534;8.316;2023-07-08T09:44:44;29.00;99.90
3626;DHT22;1827;50.534;8.316;2023-07-08T09:47:37;29.20;99.90
3626;DHT22;1827;50.534;8.316;2023-07-08T09:50:25;28.90;99.90
3626;DHT22;1827;50.534;8.316;2023-07-08T09:52:54;29.00;99.90
3626;DHT22;1827;50.534;8.316;2023-07-08T09:55:25;29.20;99.90
3626;DHT22;1827;50.534;8.316;2023-07-08T09:57:52;28.40;99.90
3626;DHT22;1827;50.534;8.316;2023-07-08T10:00:27;29.60;99.90
3626;DHT22;1827;50.534;8.316;2023-07-08T10:02:56;30.60;99.90
3626;DHT22;1827;50.534;8.316;2023-07-08T10:05:27;30.50;99.90
3626;DHT22;1827;50.534;8.316;2023-07-08T10:07:58;31.00;99.90
3626;DHT22;1827;50.534;8.316;2023-07-08T10:10:30;29.80;99.90
3626;DHT22;1827;50.534;8.316;2023-07-08T10:13:50;29.90;99.90
3626;DHT22;1827;50.534;8.316;2023-07-08T10:16:13;29.00;99.90
3626;DHT22;1827;50.534;8.316;2023-07-08T10:18:41;29.30;99.90
3626;DHT22;1827;50.534;8.316;2023-07-08T10:21:36;29.60;99.90
3626;DHT22;1827;50.534;8.316;2023-07-08T10:26:46;31.60;99.90
3626;DHT22;1827;50.534;8.316;2023-07-08T10:29:28;30.60;99.90
3626;DHT22;1827;50.534;8.316;2023-07-08T10:34:39;31.20;99.90
3626;DHT22;1827;50.534;8.316;2023-07-08T10:40:08;30.80;99.90
3626;DHT22;1827;50.534;8.316;2023-07-08T10:43:00;31.40;99.90
3626;DHT22;1827;50.534;8.316;2023-07-08T10:51:09;31.40;99.90
3626;DHT22;1827;50.534;8.316;2023-07-08T10:54:07;32.20;99.90
3626;DHT22;1827;50.534;8.316;2023-07-08T11:02:25;31.30;99.90
3626;DHT22;1827;50.534;8.316;2023-07-08T11:10:18;31.20;99.90
3626;DHT22;1827;50.534;8.316;2023-07-08T11:12:52;31.00;99.90
3626;DHT22;1827;50.534;8.316;2023-07-08T11:21:10;33.00;99.90
3626;DHT22;1827;50.534;8.316;2023-07-08T11:23:52;33.70;99.90
3626;DHT22;1827;50.534;8.316;2023-07-08T11:26:27;32.80;99.90
3626;DHT22;1827;50.534;8.316;2023-07-08T11:28:57;32.70;99.90
3626;DHT22;1827;50.534;8.316;2023-07-08T11:31:24;32.20;99.90
3626;DHT22;1827;50.534;8.316;2023-07-08T11:33:51;33.50;99.90
3626;DHT22;1827;50.534;8.316;2023-07-08T11:36:18;33.90;99.90
3626;DHT22;1827;50.534;8.316;2023-07-08T11:38:49;34.30;99.90
3626;DHT22;1827;50.534;8.316;2023-07-08T11:41:18;33.90;99.90
3626;DHT22;1827;50.534;8.316;2023-07-08T11:43:56;32.30;99.90
3626;DHT22;1827;50.534;8.316;2023-07-08T11:46:31;33.30;99.90
3626;DHT22;1827;50.534;8.316;2023-07-08T11:49:13;34.40;99.90
3626;DHT22;1827;50.534;8.316;2023-07-08T11:51:43;33.60;99.90
3626;DHT22;1827;50.534;8.316;2023-07-08T11:54:20;32.70;99.90
3626;DHT22;1827;50.534;8.316;2023-07-08T11:57:24;33.20;99.90
3626;DHT22;1827;50.534;8.316;2023-07-08T12:00:13;32.60;99.90
3626;DHT22;1827;50.534;8.316;2023-07-08T12:02:57;33.90;99.90
3626;DHT22;1827;50.534;8.316;2023-07-08T12:05:35;32.60;99.90
3626;DHT22;1827;50.534;8.316;2023-07-08T12:08:02;32.90;99.90
3626;DHT22;1827;50.534;8.316;2023-07-08T12:10:38;33.30;99.90
3626;DHT22;1827;50.534;8.316;2023-07-08T12:13:15;34.70;99.90
3626;DHT22;1827;50.534;8.316;2023-07-08T12:15:42;35.50;99.90
3626;DHT22;1827;50.534;8.316;2023-07-08T12:18:23;34.20;99.90
3626;DHT22;1827;50.534;8.316;2023-07-08T12:21:00;34.90;99.90
3626;DHT22;1827;50.534;8.316;2023-07-08T12:23:29;35.90;99.90
3626;DHT22;1827;50.534;8.316;2023-07-08T12:25:57;36.10;99.90
3626;DHT22;1827;50.534;8.316;2023-07-08T12:28:26;36.20;99.90
3626;DHT22;1827;50.534;8.316;2023-07-08T12:30:52;35.90;99.90
3626;DHT22;1827;50.534;8.316;2023-07-08T12:33:34;35.90;99.90
3626;DHT22;1827;50.534;8.316;2023-07-08T12:36:03;35.90;99.90
3626;DHT22;1827;50.534;8.316;2023-07-08T12:38:41;36.70;99.90
3626;DHT22;1827;50.534;8.316;2023-07-08T12:41:34;37.00;99.90
3626;DHT22;1827;50.534;8.316;2023-07-08T12:44:04;37.20;99.90
3626;DHT22;1827;50.534;8.316;2023-07-08T12:46:33;36.80;99.90
3626;DHT22;1827;50.534;8.316;2023-07-08T12:49:00;37.40;99.90
3626;DHT22;1827;50.534;8.316;2023-07-08T12:51:27;37.20;99.90
3626;DHT22;1827;50.534;8.316;2023-07-08T12:53:53;36.00;99.90
3626;DHT22;1827;50.534;8.316;2023-07-08T12:56:21;36.40;99.90
3626;DHT22;1827;50.534;8.316;2023-07-08T12:58:50;36.40;99.90
3626;DHT22;1827;50.534;8.316;2023-07-08T13:01:19;37.10;99.90
3626;DHT22;1827;50.534;8.316;2023-07-08T13:03:55;37.10;99.90
3626;DHT22;1827;50.534;8.316;2023-07-08T13:06:27;37.40;99.90
3626;DHT22;1827;50.534;8.316;2023-07-08T13:09:11;36.30;99.90
3626;DHT22;1827;50.534;8.316;2023-07-08T13:11:47;36.50;99.90
3626;DHT22;1827;50.534;8.316;2023-07-08T13:14:19;36.50;99.90
3626;DHT22;1827;50.534;8.316;2023-07-08T13:16:48;36.80;99.90
3626;DHT22;1827;50.534;8.316;2023-07-08T13:19:15;37.60;99.90
3626;DHT22;1827;50.534;8.316;2023-07-08T13:21:43;36.70;99.90
3626;DHT22;1827;50.534;8.316;2023-07-08T13:24:10;37.70;99.90
3626;DHT22;1827;50.534;8.316;2023-07-08T13:26:41;38.10;99.90
3626;DHT22;1827;50.534;8.316;2023-07-08T13:29:17;38.00;99.90
3626;DHT22;1827;50.534;8.316;2023-07-08T13:31:52;38.00;99.90
3626;DHT22;1827;50.534;8.316;2023-07-08T13:34:20;37.90;99.90
3626;DHT22;1827;50.534;8.316;2023-07-08T13:36:49;37.50;99.90
3626;DHT22;1827;50.534;8.316;2023-07-08T13:39:17;37.80;99.90
3626;DHT22;1827;50.534;8.316;2023-07-08T13:41:47;38.00;99.90
3626;DHT22;1827;50.534;8.316;2023-07-08T13:44:16;38.40;99.90
3626;DHT22;1827;50.534;8.316;2023-07-08T13:46:49;38.50;99.90
3626;DHT22;1827;50.534;8.316;2023-07-08T13:49:39;38.60;99.90
3626;DHT22;1827;50.534;8.316;2023-07-08T13:54:58;37.20;99.90
3626;DHT22;1827;50.534;8.316;2023-07-08T13:57:32;36.20;99.90
3626;DHT22;1827;50.534;8.316;2023-07-08T14:00:02;34.10;99.90
3626;DHT22;1827;50.534;8.316;2023-07-08T14:02:39;35.30;99.90
3626;DHT22;1827;50.534;8.316;2023-07-08T14:05:12;36.10;99.90
3626;DHT22;1827;50.534;8.316;2023-07-08T14:07:40;35.70;99.90
3626;DHT22;1827;50.534;8.316;2023-07-08T14:10:12;36.20;99.90
3626;DHT22;1827;50.534;8.316;2023-07-08T14:12:38;35.60;99.90
3626;DHT22;1827;50.534;8.316;2023-07-08T14:15:08;36.00;99.90
3626;DHT22;1827;50.534;8.316;2023-07-08T14:17:43;36.00;99.90
3626;DHT22;1827;50.534;8.316;2023-07-08T14:20:12;36.20;99.90
3626;DHT22;1827;50.534;8.316;2023-07-08T14:22:40;36.60;99.90
3626;DHT22;1827;50.534;8.316;2023-07-08T14:25:08;37.10;99.90
3626;DHT22;1827;50.534;8.316;2023-07-08T14:27:35;36.70;99.90
3626;DHT22;1827;50.534;8.316;2023-07-08T14:30:01;37.20;99.90
3626;DHT22;1827;50.534;8.316;2023-07-08T14:32:29;34.30;99.90
3626;DHT22;1827;50.534;8.316;2023-07-08T14:37:41;34.30;99.90
3626;DHT22;1827;50.534;8.316;2023-07-08T14:43:24;35.80;99.90
3626;DHT22;1827;50.534;8.316;2023-07-08T14:45:55;35.40;99.90
3626;DHT22;1827;50.534;8.316;2023-07-08T14:48:22;35.50;99.90
3626;DHT22;1827;50.534;8.316;2023-07-08T14:50:47;35.70;99.90
3626;DHT22;1827;50.534;8.316;2023-07-08T14:53:15;36.30;99.90
3626;DHT22;1827;50.534;8.316;2023-07-08T14:55:48;35.10;99.90
3626;DHT22;1827;50.534;8.316;2023-07-08T14:58:29;34.60;99.90
3626;DHT22;1827;50.534;8.316;2023-07-08T15:00:59;34.30;99.90
3626;DHT22;1827;50.534;8.316;2023-07-08T15:03:26;34.50;99.90
3626;DHT22;1827;50.534;8.316;2023-07-08T15:05:58;35.70;99.90
3626;DHT22;1827;50.534;8.316;2023-07-08T15:08:26;36.00;99.90
3626;DHT22;1827;50.534;8.316;2023-07-08T15:11:01;36.40;99.90
3626;DHT22;1827;50.534;8.316;2023-07-08T15:13:30;36.90;99.90
3626;DHT22;1827;50.534;8.316;2023-07-08T15:15:59;35.90;99.90
3626;DHT22;1827;50.534;8.316;2023-07-08T15:18:28;36.20;99.90
3626;DHT22;1827;50.534;8.316;2023-07-08T15:20:59;36.90;99.90
3626;DHT22;1827;50.534;8.316;2023-07-08T15:23:27;36.80;99.90
3626;DHT22;1827;50.534;8.316;2023-07-08T15:25:58;37.10;99.90
3626;DHT22;1827;50.534;8.316;2023-07-08T15:31:24;36.10;99.90
3626;DHT22;1827;50.534;8.316;2023-07-08T15:33:57;36.80;99.90
3626;DHT22;1827;50.534;8.316;2023-07-08T15:36:28;36.80;99.90
3626;DHT22;1827;50.534;8.316;2023-07-08T15:39:02;37.00;99.90
3626;DHT22;1827;50.534;8.316;2023-07-08T15:41:34;37.20;99.90
3626;DHT22;1827;50.534;8.316;2023-07-08T15:44:04;37.00;99.90
3626;DHT22;1827;50.534;8.316;2023-07-08T15:46:42;36.60;99.90
3626;DHT22;1827;50.534;8.316;2023-07-08T15:49:27;36.40;99.90
3626;DHT22;1827;50.534;8.316;2023-07-08T15:52:12;36.50;99.90
3626;DHT22;1827;50.534;8.316;2023-07-08T15:54:50;36.10;99.90
3626;DHT22;1827;50.534;8.316;2023-07-08T15:57:22;36.20;99.90
3626;DHT22;1827;50.534;8.316;2023-07-08T15:59:56;36.50;99.90
3626;DHT22;1827;50.534;8.316;2023-07-08T16:02:34;36.30;99.90
3626;DHT22;1827;50.534;8.316;2023-07-08T16:05:09;36.00;99.90
3626;DHT22;1827;50.534;8.316;2023-07-08T16:07:49;36.50;99.90
3626;DHT22;1827;50.534;8.316;2023-07-08T16:10:27;36.20;99.90
3626;DHT22;1827;50.534;8.316;2023-07-08T16:12:58;35.10;99.90
3626;DHT22;1827;50.534;8.316;2023-07-08T16:15:32;35.50;99.90
3626;DHT22;1827;50.534;8.316;2023-07-08T16:18:10;34.70;99.90
3626;DHT22;1827;50.534;8.316;2023-07-08T16:20:47;35.50;99.90
3626;DHT22;1827;50.534;8.316;2023-07-08T16:23:25;35.40;99.90
3626;DHT22;1827;50.534;8.316;2023-07-08T16:25:59;35.00;99.90
3626;DHT22;1827;50.534;8.316;2023-07-08T16:28:45;34.90;99.90
3626;DHT22;1827;50.534;8.316;2023-07-08T16:31:23;34.60;99.90
3626;DHT22;1827;50.534;8.316;2023-07-08T16:33:50;34.70;99.90
3626;DHT22;1827;50.534;8.316;2023-07-08T16:36:26;35.50;99.90
3626;DHT22;1827;50.534;8.316;2023-07-08T16:38:56;35.40;99.90
3626;DHT22;1827;50.534;8.316;2023-07-08T16:41:34;35.50;99.90
3626;DHT22;1827;50.534;8.316;2023-07-08T16:44:14;35.70;99.90
3626;DHT22;1827;50.534;8.316;2023-07-08T16:46:51;35.50;99.90
3626;DHT22;1827;50.534;8.316;2023-07-08T16:49:36;35.10;99.90
3626;DHT22;1827;50.534;8.316;2023-07-08T16:52:16;35.20;99.90
3626;DHT22;1827;50.534;8.316;2023-07-08T16:54:47;35.00;99.90
3626;DHT22;1827;50.534;8.316;2023-07-08T16:57:30;34.90;99.90
3626;DHT22;1827;50.534;8.316;2023-07-08T17:00:08;34.70;99.90
3626;DHT22;1827;50.534;8.316;2023-07-08T17:02:41;34.50;99.90
3626;DHT22;1827;50.534;8.316;2023-07-08T17:05:38;34.30;99.90
3626;DHT22;1827;50.534;8.316;2023-07-08T17:08:24;33.90;99.90
3626;DHT22;1827;50.534;8.316;2023-07-08T17:11:05;33.90;99.90
3626;DHT22;1827;50.534;8.316;2023-07-08T17:13:38;33.60;99.90
3626;DHT22;1827;50.534;8.316;2023-07-08T17:16:31;33.30;99.90
3626;DHT22;1827;50.534;8.316;2023-07-08T17:19:36;32.90;99.90
3626;DHT22;1827;50.534;8.316;2023-07-08T17:22:21;33.00;99.90
3626;DHT22;1827;50.534;8.316;2023-07-08T17:24:57;33.20;99.90
3626;DHT22;1827;50.534;8.316;2023-07-08T17:27:36;32.80;99.90
3626;DHT22;1827;50.534;8.316;2023-07-08T17:30:12;32.60;99.90
3626;DHT22;1827;50.534;8.316;2023-07-08T17:32:49;32.60;99.90